createdAt,value
2022-12-25T00:01:33.696Z,100212.56
2022-12-25T00:04:03.963Z,100207.06
2022-12-25T00:06:37.147Z,100203.53
2022-12-25T00:09:08.038Z,100201.34
2022-12-25T00:11:38.293Z,100206.16
2022-12-25T00:14:08.615Z,100213.56
2022-12-25T00:16:38.801Z,100210.44
2022-12-25T00:19:09.087Z,100216.13
2022-12-25T00:21:41.884Z,100219.91
2022-12-25T00:24:12.788Z,100218.38
2022-12-25T00:26:43.022Z,100225.78
2022-12-25T00:29:15.686Z,100233.03
2022-12-25T00:31:45.921Z,100224.25
2022-12-25T00:34:16.195Z,100225.53
2022-12-25T00:36:49.007Z,100234.53
2022-12-25T00:39:22.227Z,100242.31
2022-12-25T00:42:04.907Z,100248.09
2022-12-25T00:44:35.157Z,100248.44
2022-12-25T00:47:06.866Z,100260.06
2022-12-25T00:49:37.218Z,100263.75
2022-12-25T00:52:10.700Z,100259.59
2022-12-25T00:54:41.090Z,100263.22
2022-12-25T00:57:11.316Z,100259.63
2022-12-25T00:59:41.702Z,100258.63
2022-12-25T01:02:26.978Z,100261.13
2022-12-25T01:04:59.281Z,100247.50
2022-12-25T01:07:32.062Z,100251.78
2022-12-25T01:10:14.661Z,100241.38
2022-12-25T01:12:46.525Z,100254.47
2022-12-25T01:15:17.183Z,100250.31
2022-12-25T01:17:47.742Z,100229.72
2022-12-25T01:20:19.863Z,100245.69
2022-12-25T01:22:52.591Z,100245.78
2022-12-25T01:25:23.212Z,100249.06
2022-12-25T01:27:53.454Z,100256.69
2022-12-25T01:30:23.766Z,100266.31
2022-12-25T01:32:53.920Z,100259.19
2022-12-25T01:35:24.166Z,100269.00
2022-12-25T01:37:56.993Z,100270.91
2022-12-25T01:40:27.159Z,100273.69
2022-12-25T01:42:59.993Z,100281.53
2022-12-25T01:45:40.680Z,100274.69
2022-12-25T01:48:16.081Z,100271.22
2022-12-25T01:50:56.607Z,100262.38
2022-12-25T01:53:30.127Z,100269.53
2022-12-25T01:56:04.529Z,100275.00
2022-12-25T01:58:35.265Z,100266.22
2022-12-25T02:01:05.591Z,100285.19
2022-12-25T02:03:37.041Z,100282.66
2022-12-25T02:06:08.067Z,100277.13
2022-12-25T02:08:41.567Z,100284.78
2022-12-25T02:11:32.661Z,100283.94
2022-12-25T02:14:02.981Z,100286.63
2022-12-25T02:16:57.625Z,100280.66
2022-12-25T02:19:41.292Z,100272.91
2022-12-25T02:22:19.872Z,100289.50
2022-12-25T02:25:08.415Z,100290.28
2022-12-25T02:28:05.118Z,100292.28
2022-12-25T02:30:41.594Z,100290.81
2022-12-25T02:33:29.561Z,100287.50
2022-12-25T02:36:01.879Z,100291.13
2022-12-25T02:38:37.987Z,100295.81
2022-12-25T02:41:10.484Z,100309.88
2022-12-25T02:44:04.666Z,100309.28
2022-12-25T02:46:48.250Z,100300.50
2022-12-25T02:49:46.790Z,100306.59
2022-12-25T02:52:33.224Z,100306.81
2022-12-25T02:55:20.687Z,100313.88
2022-12-25T02:58:07.339Z,100324.47
2022-12-25T03:04:05.303Z,100336.84
2022-12-25T03:06:48.650Z,100331.94
2022-12-25T03:09:41.067Z,100325.09
2022-12-25T03:12:18.553Z,100318.25
2022-12-25T03:15:02.602Z,100315.00
2022-12-25T03:17:33.752Z,100326.59
2022-12-25T03:20:21.001Z,100311.53
2022-12-25T03:23:03.863Z,100331.88
2022-12-25T03:25:46.581Z,100322.06
2022-12-25T03:28:17.116Z,100320.31
2022-12-25T03:31:07.652Z,100329.63
2022-12-25T03:34:11.320Z,100327.94
2022-12-25T03:36:59.996Z,100338.16
2022-12-25T03:39:51.205Z,100332.59
2022-12-25T03:42:51.943Z,100339.03
2022-12-25T03:45:40.906Z,100326.31
2022-12-25T03:48:24.759Z,100330.31
2022-12-25T03:51:12.175Z,100325.16
2022-12-25T03:54:02.552Z,100339.50
2022-12-25T03:56:47.453Z,100336.97
2022-12-25T03:59:34.432Z,100361.88
2022-12-25T04:02:17.039Z,100359.16
2022-12-25T04:04:59.567Z,100360.84
2022-12-25T04:07:42.022Z,100362.00
2022-12-25T04:10:27.368Z,100356.22
2022-12-25T04:13:10.160Z,100356.75
2022-12-25T04:15:52.857Z,100357.94
2022-12-25T04:18:35.541Z,100357.28
2022-12-25T04:21:18.095Z,100363.50
2022-12-25T04:24:00.750Z,100356.13
2022-12-25T04:26:45.919Z,100359.81
2022-12-25T04:29:28.561Z,100355.81
2022-12-25T04:32:11.090Z,100365.63
2022-12-25T04:34:53.629Z,100368.44
2022-12-25T04:37:24.074Z,100365.19
2022-12-25T04:39:54.380Z,100363.91
2022-12-25T04:42:27.210Z,100361.56
2022-12-25T04:44:57.300Z,100368.91
2022-12-25T04:47:27.463Z,100365.69
2022-12-25T04:49:57.663Z,100362.34
2022-12-25T04:52:27.892Z,100353.69
2022-12-25T04:54:58.029Z,100348.75
2022-12-25T04:57:30.774Z,100351.41
2022-12-25T05:00:00.941Z,100360.38
2022-12-25T05:02:31.252Z,100366.72
2022-12-25T05:05:01.559Z,100364.19
2022-12-25T05:07:31.775Z,100367.91
2022-12-25T05:10:02.074Z,100369.69
2022-12-25T05:12:34.819Z,100378.56
2022-12-25T05:15:04.999Z,100376.09
2022-12-25T05:17:35.235Z,100373.53
2022-12-25T05:20:05.499Z,100373.75
2022-12-25T05:22:35.631Z,100380.94
2022-12-25T05:25:05.788Z,100386.50
2022-12-25T05:27:38.721Z,100379.78
2022-12-25T05:30:10.627Z,100378.22
2022-12-25T05:32:40.760Z,100395.69
2022-12-25T05:35:11.828Z,100390.66
2022-12-25T05:37:42.220Z,100392.69
2022-12-25T05:40:13.973Z,100393.63
2022-12-25T05:42:46.802Z,100398.09
2022-12-25T05:45:17.090Z,100399.16
2022-12-25T05:47:47.219Z,100401.94
2022-12-25T05:50:17.496Z,100410.66
2022-12-25T05:52:47.692Z,100405.19
2022-12-25T05:55:17.882Z,100404.94
2022-12-25T05:57:51.083Z,100413.56
2022-12-25T06:00:22.785Z,100416.22
2022-12-25T06:02:53.146Z,100425.81
2022-12-25T06:05:23.528Z,100419.75
2022-12-25T06:07:53.750Z,100426.41
2022-12-25T06:10:23.862Z,100428.72
2022-12-25T06:12:57.608Z,100430.16
2022-12-25T06:15:27.812Z,100436.94
2022-12-25T06:17:58.131Z,100436.03
2022-12-25T06:20:28.286Z,100439.03
2022-12-25T06:22:58.511Z,100440.97
2022-12-25T06:25:28.775Z,100446.06
2022-12-25T06:28:01.787Z,100448.00
2022-12-25T06:30:32.086Z,100443.13
2022-12-25T06:33:02.461Z,100455.56
2022-12-25T06:35:33.065Z,100475.53
2022-12-25T06:38:03.268Z,100480.88
2022-12-25T06:40:33.519Z,100485.25
2022-12-25T06:43:06.296Z,100492.16
2022-12-25T06:45:38.478Z,100481.84
2022-12-25T06:48:08.982Z,100492.09
2022-12-25T06:50:39.323Z,100499.78
2022-12-25T06:53:09.807Z,100495.53
2022-12-25T06:55:39.976Z,100491.25
2022-12-25T06:58:13.129Z,100492.44
2022-12-25T07:00:43.338Z,100498.53
2022-12-25T07:03:19.278Z,100495.91
2022-12-25T07:05:49.901Z,100494.22
2022-12-25T07:08:20.099Z,100507.59
2022-12-25T07:10:50.314Z,100516.97
2022-12-25T07:13:23.144Z,100527.66
2022-12-25T07:15:58.814Z,100533.03
2022-12-25T07:18:30.115Z,100539.09
2022-12-25T07:21:01.718Z,100550.56
2022-12-25T07:23:31.947Z,100551.75
2022-12-25T07:26:03.724Z,100545.47
2022-12-25T07:28:37.259Z,100549.75
2022-12-25T07:31:10.125Z,100541.34
2022-12-25T07:33:43.757Z,100561.53
2022-12-25T07:36:14.548Z,100564.09
2022-12-25T07:38:45.122Z,100563.03
2022-12-25T07:41:15.691Z,100559.03
2022-12-25T07:43:51.866Z,100565.88
2022-12-25T07:46:23.305Z,100564.44
2022-12-25T07:48:53.627Z,100572.97
2022-12-25T07:51:23.978Z,100571.59
2022-12-25T07:53:54.185Z,100568.75
2022-12-25T07:56:24.369Z,100565.69
2022-12-25T07:58:57.224Z,100570.56
2022-12-25T08:01:32.857Z,100561.72
2022-12-25T08:04:04.636Z,100578.63
2022-12-25T08:06:36.601Z,100580.78
2022-12-25T08:09:09.127Z,100577.34
2022-12-25T08:11:42.805Z,100586.28
2022-12-25T08:14:16.014Z,100578.25
2022-12-25T08:16:47.200Z,100584.88
2022-12-25T08:19:22.567Z,100600.06
2022-12-25T08:21:52.695Z,100587.41
2022-12-25T08:24:22.944Z,100582.59
2022-12-25T08:26:53.105Z,100599.72
2022-12-25T08:29:25.907Z,100604.13
2022-12-25T08:31:56.662Z,100602.00
2022-12-25T08:34:27.170Z,100616.66
2022-12-25T08:36:57.391Z,100605.78
2022-12-25T08:39:28.764Z,100619.22
2022-12-25T08:42:01.664Z,100617.06
2022-12-25T08:44:37.067Z,100624.66
2022-12-25T08:47:07.843Z,100625.13
2022-12-25T08:49:40.895Z,100625.28
2022-12-25T08:52:11.391Z,100630.88
2022-12-25T08:54:41.619Z,100630.13
2022-12-25T08:57:11.914Z,100626.47
2022-12-25T08:59:44.851Z,100626.22
2022-12-25T09:02:16.093Z,100607.88
2022-12-25T09:04:48.324Z,100628.59
2022-12-25T09:07:18.540Z,100622.94
2022-12-25T09:09:49.053Z,100620.72
2022-12-25T09:12:19.319Z,100620.66
2022-12-25T09:14:55.251Z,100618.34
2022-12-25T09:17:25.476Z,100622.66
2022-12-25T09:19:56.006Z,100621.03
2022-12-25T09:22:26.168Z,100633.31
2022-12-25T09:24:56.706Z,100626.84
2022-12-25T09:27:26.947Z,100628.19
2022-12-25T09:29:59.889Z,100626.38
2022-12-25T09:32:30.116Z,100628.81
2022-12-25T09:35:00.287Z,100636.72
2022-12-25T09:37:31.306Z,100637.09
2022-12-25T09:40:01.640Z,100634.16
2022-12-25T09:42:34.755Z,100636.22
2022-12-25T09:45:13.380Z,100628.63
2022-12-25T09:47:46.196Z,100627.47
2022-12-25T09:50:22.366Z,100623.69
2022-12-25T09:52:58.000Z,100624.75
2022-12-25T09:55:30.127Z,100619.63
2022-12-25T09:58:03.413Z,100622.75
2022-12-25T10:00:41.400Z,100620.19
2022-12-25T10:03:21.919Z,100626.94
2022-12-25T10:06:20.112Z,100633.22
2022-12-25T10:09:06.552Z,100631.09
2022-12-25T10:11:50.399Z,100613.13
2022-12-25T10:14:31.769Z,100625.50
2022-12-25T10:17:23.165Z,100632.34
2022-12-25T10:20:02.024Z,100621.06
2022-12-25T10:22:37.658Z,100624.94
2022-12-25T10:25:09.774Z,100627.69
2022-12-25T10:27:42.948Z,100638.16
2022-12-25T10:30:18.613Z,100626.88
2022-12-25T10:32:52.547Z,100629.91
2022-12-25T10:35:23.458Z,100618.53
2022-12-25T10:38:00.454Z,100618.97
2022-12-25T10:40:41.587Z,100618.63
2022-12-25T10:43:15.841Z,100618.13
2022-12-25T10:45:47.447Z,100615.38
2022-12-25T10:48:24.627Z,100626.50
2022-12-25T10:50:55.449Z,100627.91
2022-12-25T10:53:32.347Z,100622.28
2022-12-25T10:56:07.102Z,100617.72
2022-12-25T10:58:37.447Z,100601.47
2022-12-25T11:01:10.016Z,100615.19
2022-12-25T11:03:44.495Z,100624.31
2022-12-25T11:06:25.861Z,100607.47
2022-12-25T11:08:58.667Z,100616.16
2022-12-25T11:11:30.719Z,100620.50
2022-12-25T11:14:03.203Z,100620.72
2022-12-25T11:16:35.654Z,100624.00
2022-12-25T11:19:27.644Z,100615.81
2022-12-25T11:21:59.934Z,100613.03
2022-12-25T11:24:32.801Z,100606.91
2022-12-25T11:27:07.374Z,100600.66
2022-12-25T11:29:43.922Z,100601.50
2022-12-25T11:32:19.950Z,100599.94
2022-12-25T11:34:53.854Z,100604.47
2022-12-25T11:37:31.063Z,100610.13
2022-12-25T11:40:01.888Z,100612.78
2022-12-25T11:42:36.107Z,100613.72
2022-12-25T11:45:11.784Z,100622.41
2022-12-25T11:47:47.093Z,100621.69
2022-12-25T11:50:27.406Z,100624.34
2022-12-25T11:52:58.356Z,100631.56
2022-12-25T11:55:36.325Z,100630.84
2022-12-25T11:58:15.483Z,100635.84
2022-12-25T12:00:47.193Z,100626.56
2022-12-25T12:03:24.377Z,100624.75
2022-12-25T12:06:00.331Z,100620.16
2022-12-25T12:08:33.121Z,100627.47
2022-12-25T12:11:20.700Z,100637.09
2022-12-25T12:14:05.800Z,100639.09
2022-12-25T12:16:37.718Z,100645.25
2022-12-25T12:19:16.173Z,100635.63
2022-12-25T12:21:52.504Z,100633.31
2022-12-25T12:24:25.182Z,100634.41
2022-12-25T12:27:05.329Z,100630.69
2022-12-25T12:29:41.765Z,100644.97
2022-12-25T12:32:38.197Z,100649.13
2022-12-25T12:35:14.776Z,100642.44
2022-12-25T12:37:49.227Z,100645.31
2022-12-25T12:40:34.294Z,100651.75
2022-12-25T12:43:05.185Z,100643.22
2022-12-25T12:45:37.776Z,100643.66
2022-12-25T12:48:18.831Z,100653.69
2022-12-25T12:50:49.732Z,100650.00
2022-12-25T12:53:34.528Z,100654.66
2022-12-25T12:56:19.893Z,100658.66
2022-12-25T12:58:52.794Z,100666.25
2022-12-25T13:01:41.813Z,100666.88
2022-12-25T13:04:31.283Z,100631.59
2022-12-25T13:07:13.262Z,100664.09
2022-12-25T13:09:58.384Z,100670.50
2022-12-25T13:12:28.886Z,100669.53
2022-12-25T13:14:59.699Z,100671.22
2022-12-25T13:17:31.781Z,100669.13
2022-12-25T13:20:03.926Z,100664.25
2022-12-25T13:22:36.404Z,100661.44
2022-12-25T13:25:22.763Z,100657.81
2022-12-25T13:27:59.782Z,100643.97
2022-12-25T13:30:30.444Z,100660.03
2022-12-25T13:33:00.759Z,100663.59
2022-12-25T13:35:30.969Z,100670.75
2022-12-25T13:38:01.464Z,100664.00
2022-12-25T13:40:34.264Z,100659.50
2022-12-25T13:43:02.627Z,100641.78
2022-12-25T13:45:35.130Z,100659.09
2022-12-25T13:48:17.895Z,100668.03
2022-12-25T13:50:48.892Z,100666.72
2022-12-25T13:53:20.383Z,100665.97
2022-12-25T13:55:54.932Z,100671.84
2022-12-25T13:58:29.363Z,100666.63
2022-12-25T14:01:03.918Z,100676.78
2022-12-25T14:03:38.622Z,100684.31
2022-12-25T14:06:18.901Z,100688.38
2022-12-25T14:08:52.960Z,100694.09
2022-12-25T14:11:27.670Z,100692.63
2022-12-25T14:14:02.699Z,100692.22
2022-12-25T14:16:33.460Z,100689.41
2022-12-25T14:19:08.040Z,100701.44
2022-12-25T14:21:49.350Z,100701.22
2022-12-25T14:24:20.413Z,100704.19
2022-12-25T14:27:00.969Z,100701.38
2022-12-25T14:29:38.514Z,100710.50
2022-12-25T14:32:10.522Z,100711.16
2022-12-25T14:34:41.087Z,100714.22
2022-12-25T14:37:19.893Z,100721.78
2022-12-25T14:39:58.800Z,100732.06
2022-12-25T14:42:35.144Z,100734.44
2022-12-25T14:45:07.899Z,100730.06
2022-12-25T14:47:53.905Z,100723.34
2022-12-25T14:50:29.791Z,100729.88
2022-12-25T14:53:01.543Z,100729.47
2022-12-25T14:55:33.349Z,100730.72
2022-12-25T14:58:08.781Z,100734.91
2022-12-25T15:00:40.827Z,100739.75
2022-12-25T15:03:23.777Z,100732.34
2022-12-25T15:06:02.844Z,100734.44
2022-12-25T15:08:34.653Z,100739.28
2022-12-25T15:11:05.420Z,100743.13
2022-12-25T15:13:38.457Z,100747.91
2022-12-25T15:16:15.228Z,100752.72
2022-12-25T15:18:47.803Z,100752.09
2022-12-25T15:21:20.557Z,100757.03
2022-12-25T15:23:50.802Z,100751.28
2022-12-25T15:26:21.176Z,100736.63
2022-12-25T15:28:53.990Z,100735.06
2022-12-25T15:31:26.735Z,100738.69
2022-12-25T15:34:00.640Z,100732.69
2022-12-25T15:36:31.200Z,100724.91
2022-12-25T15:39:01.757Z,100717.25
2022-12-25T15:41:47.021Z,100710.16
2022-12-25T15:44:20.139Z,100699.19
2022-12-25T15:46:50.912Z,100714.34
2022-12-25T15:49:22.015Z,100712.88
2022-12-25T15:51:52.224Z,100720.16
2022-12-25T15:54:22.659Z,100734.44
2022-12-25T15:56:55.142Z,100732.94
2022-12-25T15:59:27.963Z,100742.75
2022-12-25T16:02:00.449Z,100724.00
2022-12-25T16:04:34.270Z,100727.28
2022-12-25T16:07:04.651Z,100735.28
2022-12-25T16:09:34.819Z,100736.50
2022-12-25T16:12:05.803Z,100717.94
2022-12-25T16:14:38.898Z,100706.22
2022-12-25T16:17:09.047Z,100721.94
2022-12-25T16:19:39.354Z,100731.69
2022-12-25T16:22:14.709Z,100725.25
2022-12-25T16:24:47.747Z,100742.88
2022-12-25T16:27:17.982Z,100738.78
2022-12-25T16:29:50.871Z,100736.22
2022-12-25T16:32:21.135Z,100727.69
2022-12-25T16:34:52.066Z,100731.34
2022-12-25T16:37:24.358Z,100718.47
2022-12-25T16:39:54.666Z,100716.91
2022-12-25T16:42:28.155Z,100717.41
2022-12-25T16:45:04.010Z,100711.75
2022-12-25T16:47:35.536Z,100714.66
2022-12-25T16:50:08.677Z,100718.38
2022-12-25T16:52:40.925Z,100701.41
2022-12-25T16:55:13.794Z,100715.31
2022-12-25T16:57:46.487Z,100721.59
2022-12-25T17:00:25.479Z,100718.19
2022-12-25T17:03:04.934Z,100719.22
2022-12-25T17:05:38.792Z,100722.56
2022-12-25T17:08:11.652Z,100727.53
2022-12-25T17:10:43.128Z,100740.47
2022-12-25T17:13:15.666Z,100738.44
2022-12-25T17:15:55.080Z,100735.28
2022-12-25T17:18:26.519Z,100747.03
2022-12-25T17:21:00.109Z,100739.63
2022-12-25T17:23:38.083Z,100741.88
2022-12-25T17:26:10.136Z,100746.69
2022-12-25T17:28:40.356Z,100763.59
2022-12-25T17:31:19.558Z,100758.72
2022-12-25T17:33:54.334Z,100758.50
2022-12-25T17:36:28.023Z,100764.38
2022-12-25T17:39:01.599Z,100753.66
2022-12-25T17:41:36.674Z,100750.13
2022-12-25T17:44:08.331Z,100758.47
2022-12-25T17:46:48.043Z,100755.72
2022-12-25T17:49:20.424Z,100753.84
2022-12-25T17:51:56.039Z,100753.69
2022-12-25T17:54:36.445Z,100749.13
2022-12-25T17:57:09.424Z,100736.03
2022-12-25T17:59:42.127Z,100733.13
2022-12-25T18:02:19.095Z,100732.13
2022-12-25T18:04:51.161Z,100733.03
2022-12-25T18:07:40.325Z,100724.34
2022-12-25T18:10:11.803Z,100716.47
2022-12-25T18:12:58.287Z,100722.81
2022-12-25T18:15:29.656Z,100720.13
2022-12-25T18:18:08.390Z,100720.72
2022-12-25T18:20:42.054Z,100724.03
2022-12-25T18:23:16.370Z,100725.66
2022-12-25T18:25:49.289Z,100719.50
2022-12-25T18:28:25.083Z,100712.25
2022-12-25T18:30:58.215Z,100707.88
2022-12-25T18:33:33.584Z,100708.56
2022-12-25T18:36:10.663Z,100694.38
2022-12-25T18:38:41.164Z,100682.22
2022-12-25T18:41:13.034Z,100675.09
2022-12-25T18:43:53.254Z,100674.06
2022-12-25T18:46:26.700Z,100682.03
2022-12-25T18:49:01.458Z,100689.66
2022-12-25T18:51:36.872Z,100686.78
2022-12-25T18:54:07.604Z,100699.06
2022-12-25T18:56:37.769Z,100711.00
2022-12-25T18:59:10.663Z,100710.84
2022-12-25T19:01:41.338Z,100716.03
2022-12-25T19:04:17.558Z,100726.94
2022-12-25T19:06:52.383Z,100723.47
2022-12-25T19:09:22.614Z,100723.53
2022-12-25T19:11:53.869Z,100722.38
2022-12-25T19:14:24.651Z,100706.56
2022-12-25T19:16:55.199Z,100703.09
2022-12-25T19:19:31.023Z,100693.31
2022-12-25T19:22:01.573Z,100687.13
2022-12-25T19:24:33.037Z,100675.78
2022-12-25T19:27:03.266Z,100663.69
2022-12-25T19:29:34.544Z,100653.13
2022-12-25T19:32:09.876Z,100659.81
2022-12-25T19:34:47.525Z,100656.44
2022-12-25T19:37:17.688Z,100666.84
2022-12-25T19:39:48.710Z,100658.97
2022-12-25T19:42:19.609Z,100659.91
2022-12-25T19:44:49.888Z,100652.88
2022-12-25T19:47:23.299Z,100653.72
2022-12-25T19:50:02.618Z,100656.28
2022-12-25T19:52:42.536Z,100661.59
2022-12-25T19:55:13.382Z,100658.88
2022-12-25T19:57:43.782Z,100653.66
2022-12-25T20:00:14.940Z,100653.66
2022-12-25T20:02:45.249Z,100660.59
2022-12-25T20:05:18.432Z,100658.03
2022-12-25T20:07:49.679Z,100668.44
2022-12-25T20:10:20.220Z,100677.16
2022-12-25T20:12:56.087Z,100679.78
2022-12-25T20:15:26.390Z,100691.06
2022-12-25T20:17:57.296Z,100692.56
2022-12-25T20:20:30.201Z,100681.97
2022-12-25T20:23:00.668Z,100680.91
2022-12-25T20:25:30.998Z,100674.72
2022-12-25T20:28:01.421Z,100674.63
2022-12-25T20:30:33.847Z,100677.09
2022-12-25T20:33:04.114Z,100692.84
2022-12-25T20:35:36.899Z,100685.75
2022-12-25T20:38:07.318Z,100690.13
2022-12-25T20:41:00.027Z,100691.00
2022-12-25T20:43:28.019Z,100683.34
2022-12-25T20:45:58.338Z,100679.88
2022-12-25T20:48:28.953Z,100680.13
2022-12-25T20:51:12.979Z,100689.19
2022-12-25T20:53:44.091Z,100697.22
2022-12-25T20:56:18.308Z,100693.84
2022-12-25T20:58:50.663Z,100696.78
2022-12-25T21:01:21.039Z,100694.84
2022-12-25T21:03:51.540Z,100687.91
2022-12-25T21:06:24.528Z,100681.13
2022-12-25T21:08:55.187Z,100662.69
2022-12-25T21:11:25.788Z,100668.00
2022-12-25T21:13:56.194Z,100675.88
2022-12-25T21:16:28.159Z,100678.50
2022-12-25T21:18:58.752Z,100673.25
2022-12-25T21:21:32.003Z,100680.19
2022-12-25T21:24:02.223Z,100686.38
2022-12-25T21:26:33.666Z,100695.94
2022-12-25T21:29:05.212Z,100694.00
2022-12-25T21:31:57.103Z,100695.69
2022-12-25T21:34:24.684Z,100701.09
2022-12-25T21:36:57.648Z,100706.41
2022-12-25T21:39:27.872Z,100710.56
2022-12-25T21:41:58.256Z,100692.91
2022-12-25T21:44:28.512Z,100675.41
2022-12-25T21:46:58.761Z,100671.06
2022-12-25T21:49:42.697Z,100678.25
2022-12-25T21:52:15.529Z,100677.31
2022-12-25T21:54:46.041Z,100673.78
2022-12-25T21:57:16.267Z,100670.31
2022-12-25T21:59:46.457Z,100649.81
2022-12-25T22:02:19.326Z,100664.06
2022-12-25T22:04:49.611Z,100657.72
2022-12-25T22:07:19.858Z,100645.47
2022-12-25T22:09:51.545Z,100647.13
2022-12-25T22:12:35.906Z,100648.41
2022-12-25T22:15:06.757Z,100655.09
2022-12-25T22:17:52.414Z,100668.09
2022-12-25T22:20:24.864Z,100661.44
2022-12-25T22:22:57.702Z,100658.81
2022-12-25T22:25:28.307Z,100654.66
2022-12-25T22:28:00.737Z,100654.81
2022-12-25T22:30:34.705Z,100655.13
2022-12-25T22:33:04.632Z,100655.75
2022-12-25T22:35:34.873Z,100654.44
2022-12-25T22:38:07.820Z,100663.69
2022-12-25T22:40:39.672Z,100662.00
2022-12-25T22:43:09.855Z,100662.06
2022-12-25T22:45:39.975Z,100664.16
2022-12-25T22:48:10.309Z,100668.56
2022-12-25T22:50:40.912Z,100660.81
2022-12-25T22:53:13.660Z,100656.06
2022-12-25T22:55:48.690Z,100654.28
2022-12-25T22:58:19.302Z,100652.09
2022-12-25T23:00:49.452Z,100660.03
2022-12-25T23:03:19.709Z,100658.06
2022-12-25T23:05:56.763Z,100645.91
2022-12-25T23:08:29.609Z,100641.75
2022-12-25T23:11:04.534Z,100634.66
2022-12-25T23:13:47.128Z,100642.34
2022-12-25T23:16:18.496Z,100633.06
2022-12-25T23:19:01.186Z,100633.53
2022-12-25T23:21:44.587Z,100632.03
2022-12-25T23:24:31.168Z,100629.41
2022-12-25T23:27:01.601Z,100627.19
2022-12-25T23:29:38.049Z,100625.59
2022-12-25T23:32:10.463Z,100624.03
2022-12-25T23:34:43.289Z,100629.13
2022-12-25T23:37:14.756Z,100622.13
2022-12-25T23:39:47.637Z,100623.03
2022-12-25T23:42:18.039Z,100621.09
2022-12-25T23:44:48.201Z,100610.84
2022-12-25T23:47:18.444Z,100616.88
2022-12-25T23:49:48.790Z,100596.28
2022-12-25T23:52:19.199Z,100607.22
2022-12-25T23:54:52.047Z,100609.25
2022-12-25T23:57:22.193Z,100601.13
2022-12-25T23:59:52.355Z,100623.66
